createdAt,value
2022-12-17T00:00:03.393Z,100980.50
2022-12-17T00:05:30.624Z,100983.06
2022-12-17T00:10:54.947Z,100954.03
2022-12-17T00:16:19.451Z,100948.88
2022-12-17T00:21:45.191Z,100965.66
2022-12-17T00:27:09.071Z,100971.09
2022-12-17T00:32:35.084Z,100971.16
2022-12-17T00:38:00.946Z,100983.06
2022-12-17T00:43:29.941Z,100977.22
2022-12-17T00:48:54.765Z,100977.22
2022-12-17T00:54:22.925Z,100995.94
2022-12-17T00:59:47.755Z,101025.97
2022-12-17T01:05:12.238Z,101023.50
2022-12-17T01:10:37.909Z,101015.88
2022-12-17T01:16:02.500Z,101021.97
2022-12-17T01:21:26.711Z,101014.38
2022-12-17T01:26:52.233Z,101017.88
2022-12-17T01:32:16.363Z,101012.72
2022-12-17T01:37:42.976Z,101024.41
2022-12-17T01:43:08.741Z,101037.03
2022-12-17T01:48:37.022Z,101037.47
2022-12-17T01:54:07.071Z,101040.78
2022-12-17T01:59:35.108Z,101040.91
2022-12-17T02:05:02.830Z,101051.84
2022-12-17T02:10:41.711Z,101048.47
2022-12-17T02:16:10.342Z,101052.31
2022-12-17T02:21:34.215Z,101062.34
2022-12-17T02:28:06.401Z,101063.16
2022-12-17T02:33:33.924Z,101060.34
2022-12-17T02:38:58.386Z,101059.63
2022-12-17T02:44:24.922Z,101064.84
2022-12-17T02:49:51.742Z,101054.25
2022-12-17T02:55:16.904Z,101046.66
2022-12-17T03:00:40.947Z,101043.25
2022-12-17T03:06:07.030Z,101037.41
2022-12-17T03:11:36.201Z,101044.31
2022-12-17T03:17:01.087Z,101038.28
2022-12-17T03:22:26.984Z,101039.16
2022-12-17T03:27:51.262Z,101040.50
2022-12-17T03:33:15.476Z,101038.22
2022-12-17T03:38:40.619Z,101058.06
2022-12-17T03:44:04.626Z,101060.63
2022-12-17T03:49:28.127Z,101048.78
2022-12-17T03:54:53.224Z,101036.47
2022-12-17T04:00:17.076Z,101051.66
2022-12-17T04:05:40.829Z,101052.66
2022-12-17T04:11:06.271Z,101048.91
2022-12-17T04:16:29.987Z,101067.09
2022-12-17T04:21:53.743Z,101062.56
2022-12-17T04:27:21.233Z,101061.53
2022-12-17T04:32:44.945Z,101075.41
2022-12-17T04:38:11.677Z,101093.72
2022-12-17T04:43:37.199Z,101119.78
2022-12-17T04:49:01.547Z,101136.91
2022-12-17T04:54:25.677Z,101144.50
2022-12-17T04:59:51.217Z,101145.34
2022-12-17T05:05:15.069Z,101153.78
2022-12-17T05:10:39.028Z,101165.94
2022-12-17T05:16:04.816Z,101175.06
2022-12-17T05:21:38.389Z,101182.63
2022-12-17T05:27:02.194Z,101184.44
2022-12-17T05:32:27.786Z,101193.63
2022-12-17T05:37:51.896Z,101193.28
2022-12-17T05:43:17.471Z,101199.63
2022-12-17T05:48:42.700Z,101186.47
2022-12-17T05:54:06.572Z,101180.66
2022-12-17T05:59:30.437Z,101175.69
2022-12-17T06:05:01.845Z,101193.69
2022-12-17T06:10:27.735Z,101194.25
2022-12-17T06:15:51.481Z,101201.69
2022-12-17T06:21:28.336Z,101206.78
2022-12-17T06:26:52.503Z,101209.03
2022-12-17T06:32:16.269Z,101212.41
2022-12-17T06:37:41.807Z,101222.41
2022-12-17T06:43:13.203Z,101239.63
2022-12-17T06:48:37.441Z,101244.78
2022-12-17T06:54:02.535Z,101258.75
2022-12-17T06:59:26.396Z,101261.13
2022-12-17T07:04:50.242Z,101269.84
2022-12-17T07:10:15.746Z,101267.09
2022-12-17T07:15:39.719Z,101278.88
2022-12-17T07:21:05.119Z,101286.06
2022-12-17T07:26:30.576Z,101284.06
2022-12-17T07:31:54.973Z,101308.47
2022-12-17T07:37:24.415Z,101322.25
2022-12-17T07:42:51.766Z,101331.66
2022-12-17T07:48:15.550Z,101342.50
2022-12-17T07:53:39.487Z,101351.59
2022-12-17T07:59:19.497Z,101329.72
2022-12-17T08:04:43.208Z,101323.91
2022-12-17T08:10:07.297Z,101348.34
2022-12-17T08:15:32.704Z,101354.44
2022-12-17T08:21:04.978Z,101359.69
2022-12-17T08:26:28.982Z,101372.50
2022-12-17T08:31:54.623Z,101362.47
2022-12-17T08:37:18.591Z,101358.84
2022-12-17T08:42:43.345Z,101361.94
2022-12-17T08:48:08.815Z,101366.97
2022-12-17T08:53:35.068Z,101369.41
2022-12-17T08:58:59.504Z,101373.56
2022-12-17T09:04:25.442Z,101383.31
2022-12-17T09:09:49.439Z,101390.63
2022-12-17T09:15:14.269Z,101392.56
2022-12-17T09:20:40.847Z,101403.53
2022-12-17T09:26:13.096Z,101410.69
2022-12-17T09:31:37.704Z,101405.09
2022-12-17T09:37:04.025Z,101404.25
2022-12-17T09:42:38.672Z,101411.75
2022-12-17T09:48:17.488Z,101418.34
2022-12-17T09:53:55.080Z,101407.47
2022-12-17T09:59:21.413Z,101410.28
2022-12-17T10:04:54.150Z,101430.88
2022-12-17T10:10:33.409Z,101432.75
2022-12-17T10:15:57.342Z,101437.53
2022-12-17T10:21:24.734Z,101443.09
2022-12-17T10:26:52.738Z,101450.84
2022-12-17T10:32:28.301Z,101466.13
2022-12-17T10:37:54.775Z,101467.03
2022-12-17T10:43:34.986Z,101474.03
2022-12-17T10:48:59.217Z,101471.53
2022-12-17T10:54:41.623Z,101473.06
2022-12-17T11:00:10.229Z,101478.16
2022-12-17T11:05:46.115Z,101477.34
2022-12-17T11:11:09.763Z,101479.03
2022-12-17T11:16:43.374Z,101466.13
2022-12-17T11:22:11.246Z,101463.75
2022-12-17T11:27:41.044Z,101465.59
2022-12-17T11:33:30.233Z,101466.97
2022-12-17T11:39:09.971Z,101480.53
2022-12-17T11:44:52.767Z,101494.19
2022-12-17T11:50:32.053Z,101507.97
2022-12-17T11:56:04.232Z,101513.97
2022-12-17T12:01:38.801Z,101512.19
2022-12-17T12:07:15.649Z,101505.34
2022-12-17T12:12:59.631Z,101503.03
2022-12-17T12:18:31.888Z,101517.59
2022-12-17T12:24:09.679Z,101529.38
2022-12-17T12:29:50.637Z,101532.88
2022-12-17T12:36:24.127Z,101528.59
2022-12-17T12:42:03.065Z,101531.88
2022-12-17T12:47:34.002Z,101550.94
2022-12-17T12:52:58.447Z,101552.81
2022-12-17T12:58:42.106Z,101565.84
2022-12-17T13:04:12.756Z,101564.84
2022-12-17T13:09:39.967Z,101575.44
2022-12-17T13:14:56.479Z,101587.84
2022-12-17T13:20:24.785Z,101589.31
2022-12-17T13:25:31.344Z,101599.97
2022-12-17T13:30:40.762Z,101599.00
2022-12-17T13:36:15.474Z,101609.25
2022-12-17T13:41:24.154Z,101617.06
2022-12-17T13:46:46.956Z,101615.81
2022-12-17T13:52:11.139Z,101611.19
2022-12-17T13:57:20.500Z,101617.06
2022-12-17T14:02:31.672Z,101616.22
2022-12-17T14:07:41.131Z,101618.25
2022-12-17T14:12:50.538Z,101623.00
2022-12-17T14:18:00.906Z,101628.38
2022-12-17T14:23:16.046Z,101642.25
2022-12-17T14:28:26.362Z,101658.00
2022-12-17T14:33:38.123Z,101663.97
2022-12-17T14:38:57.493Z,101660.88
2022-12-17T14:44:05.958Z,101669.69
2022-12-17T14:49:22.220Z,101679.41
2022-12-17T14:54:31.940Z,101682.28
2022-12-17T14:59:41.448Z,101679.50
2022-12-17T15:04:49.743Z,101686.16
2022-12-17T15:09:57.732Z,101692.69
2022-12-17T15:15:04.700Z,101698.41
2022-12-17T15:20:20.061Z,101707.59
2022-12-17T15:25:26.977Z,101705.84
2022-12-17T15:30:34.541Z,101723.66
2022-12-17T15:35:43.657Z,101725.41
2022-12-17T15:40:50.986Z,101733.59
2022-12-17T15:46:03.859Z,101734.72
2022-12-17T15:51:19.411Z,101734.88
2022-12-17T15:56:30.306Z,101733.91
2022-12-17T16:01:38.018Z,101744.09
2022-12-17T16:06:46.907Z,101745.00
2022-12-17T16:11:56.680Z,101752.53
2022-12-17T16:17:04.066Z,101758.78
2022-12-17T16:22:13.861Z,101759.19
2022-12-17T16:27:23.027Z,101768.50
2022-12-17T16:32:36.140Z,101762.63
2022-12-17T16:37:46.202Z,101777.72
2022-12-17T16:42:53.428Z,101778.50
2022-12-17T16:48:00.901Z,101783.78
2022-12-17T16:53:10.388Z,101784.84
2022-12-17T16:58:20.169Z,101790.78
2022-12-17T17:03:26.834Z,101800.25
2022-12-17T17:08:35.672Z,101807.13
2022-12-17T17:13:42.448Z,101808.06
2022-12-17T17:18:49.494Z,101817.97
2022-12-17T17:24:01.632Z,101819.38
2022-12-17T17:29:09.111Z,101815.75
2022-12-17T17:34:17.000Z,101819.19
2022-12-17T17:39:25.550Z,101829.09
2022-12-17T17:44:32.154Z,101826.44
2022-12-17T17:49:40.141Z,101838.88
2022-12-17T17:54:50.362Z,101840.56
2022-12-17T17:59:57.123Z,101847.13
2022-12-17T18:05:04.345Z,101866.59
2022-12-17T18:10:13.628Z,101865.66
2022-12-17T18:15:20.791Z,101854.28
2022-12-17T18:20:28.358Z,101859.88
2022-12-17T18:25:38.483Z,101875.31
2022-12-17T18:30:45.953Z,101874.06
2022-12-17T18:35:52.699Z,101884.53
2022-12-17T18:41:30.439Z,101895.16
2022-12-17T18:46:37.809Z,101900.91
2022-12-17T18:51:48.331Z,101909.28
2022-12-17T18:57:02.057Z,101917.22
2022-12-17T19:02:12.712Z,101923.53
2022-12-17T19:07:20.341Z,101922.88
2022-12-17T19:12:29.621Z,101921.75
2022-12-17T19:17:38.102Z,101930.59
2022-12-17T19:22:45.736Z,101928.31
2022-12-17T19:27:54.908Z,101926.56
2022-12-17T19:33:02.087Z,101927.50
2022-12-17T19:38:12.262Z,101939.22
2022-12-17T19:43:22.644Z,101938.16
2022-12-17T19:48:32.303Z,101961.00
2022-12-17T19:53:40.240Z,101975.38
2022-12-17T19:58:53.704Z,101974.72
2022-12-17T20:04:01.839Z,101985.47
2022-12-17T20:09:11.015Z,101983.00
2022-12-17T20:14:21.306Z,101988.19
2022-12-17T20:19:31.899Z,101983.78
2022-12-17T20:24:39.577Z,101987.06
2022-12-17T20:29:48.417Z,101987.13
2022-12-17T20:34:56.057Z,102004.03
2022-12-17T20:40:04.761Z,102005.78
2022-12-17T20:45:15.196Z,102017.03
2022-12-17T20:50:22.667Z,102039.19
2022-12-17T20:55:31.271Z,102034.88
2022-12-17T21:00:40.704Z,102050.25
2022-12-17T21:05:49.225Z,102046.84
2022-12-17T21:10:59.242Z,102059.06
2022-12-17T21:16:16.027Z,102061.63
2022-12-17T21:21:26.108Z,102065.13
2022-12-17T21:26:35.438Z,102072.06
2022-12-17T21:31:51.762Z,102072.94
2022-12-17T21:36:59.217Z,102055.81
2022-12-17T21:42:23.261Z,102065.28
2022-12-17T21:47:31.788Z,102056.78
2022-12-17T21:52:38.409Z,102056.06
2022-12-17T21:57:46.188Z,102074.09
2022-12-17T22:02:55.066Z,102074.97
2022-12-17T22:08:02.112Z,102082.00
2022-12-17T22:13:27.492Z,102089.66
2022-12-17T22:18:36.115Z,102098.28
2022-12-17T22:23:49.033Z,102103.47
2022-12-17T22:28:55.889Z,102102.50
2022-12-17T22:34:52.831Z,102112.88
2022-12-17T22:44:28.974Z,102123.38
2022-12-17T22:45:06.159Z,102122.56
2022-12-17T22:50:17.005Z,102131.53
2022-12-17T22:55:24.043Z,102136.72
2022-12-17T23:00:35.619Z,102145.50
2022-12-17T23:05:43.458Z,102143.03
2022-12-17T23:10:52.830Z,102151.41
2022-12-17T23:15:59.618Z,102147.44
2022-12-17T23:21:13.432Z,102161.25
2022-12-17T23:26:22.733Z,102162.13
2022-12-17T23:31:33.222Z,102161.44
2022-12-17T23:36:41.180Z,102177.72
2022-12-17T23:41:47.919Z,102182.09
2022-12-17T23:46:54.470Z,102186.28
2022-12-17T23:52:02.190Z,102180.44
2022-12-17T23:57:08.489Z,102189.06
